Event-Kalender
Terminkalender Drucken Email help
Jahresansicht Monatsansicht Wochenansicht Heute Suche Zum ausgwählten Monat wechseln
Termine für
Donnerstag, 14. September 2017



JEvents v1.5.5e   Copyright © 2006-2011

Zufallsbild

Aktuelle Termine

Mo Di Mi Do Fr Sa So
28 29 30 31 1 2 3
4 5 6 7 8 9 10
11 12 13 14 15 16 17
18 19 20 21 22 23 24
25 26 27 28 29 30 1

Pilotenwetter

[source: ADDS]
METAR
EDDH 162220Z 23006KT 190V270 9999 FEW004 BKN010CB 01/00 Q0989 TEMPO SCT010 =
TAF
TAF EDDH 161700Z 1618/1724 24010KT 9999 BKN020 PROB30 TEMPO 1618/1709 26015G25KT 2500 SHSNRA BKN007CB TEMPO 1709/1721 26015G30KT 3500 SHRASN BKN008CB =